EFSI

Seinäjoki Airport

Seinäjoki / Ilmajoki, Finland
METAR EFSI 201450Z AUTO 34003KT CAVOK M13/M14 Q1028
Observed Flight Rules
Feb-20 @ 14:50 UTC (5 hours ago) Visual Flight Rules
Wind Visibility Clouds
340° at 3 knots 10,000+ meters
  • Clear skies
Temperatures Readings
Current -13°C / 9°F
Dewpoint -14°C / 7°F
Humidity 92%
Altimeter 30.35" Hg
Pressure 1028 hPa
Elevation 91
METAR EFSI 201450Z AUTO 34003KT CAVOK M13/M14 Q1028
Observed Flight Rules
Feb-20 @ 14:50 UTC
(5 hours ago)
VFR
Wind Visibility
340° at 3 knots 10,000+ meters
Clouds
  • Clear skies
Temperature Dewpoint
-13°C / 9°F -14°C / 7°F
Humidity Altimeter Pressure
92% 30.35" Hg 1028 hPa